Time;durP1;ratioP1;P1;durP2;ratioP2;P2;SDS_P1;SDS_P2;PMS_P1;PMS_P2;Temp;Humidity;BMP_temperature;BMP_pressure;BME280_temperature;BME280_humidity;BME280_pressure;Samples;Min_cycle;Max_cycle;Signal;HPM_P1;HPM_P2
2022/10/02 04:01:10;;;;;;;1999.90;999.90;;;;;;;;;;5914949;23;20249;-67
2022/10/02 04:03:57;;;;;;;1999.90;999.90;;;;;;;;;;5047482;28;20370;-66
2022/10/02 04:06:45;;;;;;;1999.90;999.90;;;;;;;;;;5050038;28;20227;-67
2022/10/02 04:09:34;;;;;;;1999.90;999.90;;;;;;;;;;5045658;28;20234;-66
2022/10/02 04:12:20;;;;;;;1999.90;999.90;;;;;;;;;;5060765;28;20768;-67
2022/10/02 04:15:09;;;;;;;1999.90;999.90;;;;;;;;;;5062307;28;20636;-67
2022/10/02 04:17:58;;;;;;;1999.90;999.90;;;;;;;;;;5073373;28;20411;-67
2022/10/02 04:20:44;;;;;;;1999.90;999.90;;;;;;;;;;5055618;28;20222;-67
2022/10/02 04:23:31;;;;;;;1999.90;999.90;;;;;;;;;;5053420;28;20208;-67
2022/10/02 04:26:19;;;;;;;1999.90;999.90;;;;;;;;;;5052882;28;20680;-67
2022/10/02 04:29:08;;;;;;;1999.90;999.90;;;;;;;;;;5053310;28;20228;-67
2022/10/02 04:32:01;;;;;;;1999.90;999.90;;;;;;;;;;5062505;28;20793;-67
2022/10/02 04:34:47;;;;;;;1999.90;999.90;;;;;;;;;;5072990;28;20206;-67
2022/10/02 04:37:37;;;;;;;1999.90;999.90;;;;;;;;;;5072877;28;20245;-67
2022/10/02 04:40:33;;;;;;;1999.90;999.90;;;;;;;;;;5073042;28;20754;-68
2022/10/02 04:43:23;;;;;;;1999.90;999.90;;;;;;;;;;5073008;28;20202;-67
2022/10/02 04:46:13;;;;;;;1999.90;999.90;;;;;;;;;;5067288;28;20296;-66
2022/10/02 04:49:11;;;;;;;1999.90;999.90;;;;;;;;;;5063476;28;20231;-67
2022/10/02 04:52:05;;;;;;;1999.90;999.90;;;;;;;;;;5065367;28;20230;-67
2022/10/02 04:55:14;;;;;;;1999.90;999.90;;;;;;;;;;5063964;28;20209;-67
2022/10/02 04:58:09;;;;;;;1999.90;999.90;;;;;;;;;;5061894;28;20343;-66
2022/10/02 05:00:59;;;;;;;1999.90;999.90;;;;;;;;;;5066856;28;20651;-67
2022/10/02 05:03:51;;;;;;;1999.90;999.90;;;;;;;;;;5070608;28;20227;-66
2022/10/02 05:06:45;;;;;;;1999.90;999.90;;;;;;;;;;5061515;28;20599;-67
2022/10/02 05:09:36;;;;;;;1999.90;999.90;;;;;;;;;;5055455;28;20214;-67
2022/10/02 05:12:26;;;;;;;1999.90;999.90;;;;;;;;;;5060883;28;20301;-67
2022/10/02 05:15:21;;;;;;;1999.90;999.90;;;;;;;;;;5065443;28;20210;-63
2022/10/02 05:18:15;;;;;;;1999.90;999.90;;;;;;;;;;5070980;28;20263;-65
2022/10/02 05:21:15;;;;;;;1999.90;999.90;;;;;;;;;;5062137;28;20318;-68
2022/10/02 05:24:11;;;;;;;1999.90;999.90;;;;;;;;;;5052659;28;20198;-67
2022/10/02 05:27:12;;;;;;;1999.90;999.90;;;;;;;;;;5052017;28;20792;-67
2022/10/02 05:30:05;;;;;;;1999.90;999.90;;;;;;;;;;5052122;28;20440;-67
2022/10/02 05:33:02;;;;;;;1999.90;999.90;;;;;;;;;;5057790;28;20743;-69
2022/10/02 05:35:56;;;;;;;1999.90;999.90;;;;;;;;;;5066627;28;20291;-68
2022/10/02 05:38:51;;;;;;;1999.90;999.90;;;;;;;;;;5065031;28;20210;-68
2022/10/02 05:41:48;;;;;;;1999.90;999.90;;;;;;;;;;5061587;28;20311;-68
2022/10/02 05:44:37;;;;;;;1999.90;999.90;;;;;;;;;;5064409;28;20231;-68
2022/10/02 05:47:25;;;;;;;1999.90;999.90;;;;;;;;;;5064334;28;20575;-69
2022/10/02 05:50:14;;;;;;;1999.90;999.90;;;;;;;;;;5068409;28;20225;-68
2022/10/02 05:53:01;;;;;;;1999.90;999.90;;;;;;;;;;5069341;28;20209;-68
2022/10/02 05:55:48;;;;;;;1999.90;999.90;;;;;;;;;;5065876;28;20292;-67
2022/10/02 05:58:35;;;;;;;1999.90;999.90;;;;;;;;;;5064155;28;20286;-68
2022/10/02 06:01:25;;;;;;;1999.90;999.90;;;;;;;;;;5063449;28;20241;-69
2022/10/02 06:04:13;;;;;;;1999.90;999.90;;;;;;;;;;5070703;28;20205;-69
2022/10/02 06:07:00;;;;;;;1999.90;999.90;;;;;;;;;;5060660;28;20209;-68
2022/10/02 06:09:47;;;;;;;1999.90;999.90;;;;;;;;;;5070377;28;20222;-69
2022/10/02 06:12:35;;;;;;;1999.90;999.90;;;;;;;;;;5063790;28;20235;-68
2022/10/02 06:15:22;;;;;;;1999.90;999.90;;;;;;;;;;5060613;28;20219;-69
2022/10/02 06:18:10;;;;;;;1999.90;999.90;;;;;;;;;;5063006;28;20229;-68
2022/10/02 06:20:56;;;;;;;1999.90;999.90;;;;;;;;;;5070192;28;20232;-68
2022/10/02 06:23:43;;;;;;;1999.90;999.90;;;;;;;;;;5065593;28;20411;-69
2022/10/02 06:26:32;;;;;;;1999.90;999.90;;;;;;;;;;5059528;28;20228;-68
2022/10/02 06:29:21;;;;;;;1999.90;999.90;;;;;;;;;;5065393;28;20616;-68
2022/10/02 06:32:14;;;;;;;1999.90;999.90;;;;;;;;;;5062094;28;20651;-69
2022/10/02 06:35:01;;;;;;;1999.90;999.90;;;;;;;;;;5062673;28;20203;-68
2022/10/02 06:38:01;;;;;;;1999.90;999.90;;;;;;;;;;5063179;28;20216;-68
2022/10/02 06:40:50;;;;;;;1999.90;999.90;;;;;;;;;;5066834;28;20232;-69
2022/10/02 06:43:43;;;;;;;1999.90;999.90;;;;;;;;;;5054939;28;20407;-69
2022/10/02 06:46:35;;;;;;;1999.90;999.90;;;;;;;;;;5065253;28;20211;-69
2022/10/02 06:49:25;;;;;;;1999.90;999.90;;;;;;;;;;5062212;28;20203;-68
2022/10/02 06:52:16;;;;;;;1999.90;999.90;;;;;;;;;;5063308;28;20227;-69
2022/10/02 06:55:09;;;;;;;1999.90;999.90;;;;;;;;;;5068555;28;20215;-68
2022/10/02 06:58:04;;;;;;;1999.90;999.90;;;;;;;;;;5070403;28;20392;-69
2022/10/02 07:00:51;;;;;;;1999.90;999.90;;;;;;;;;;5067277;28;20227;-69
2022/10/02 07:03:54;;;;;;;1999.90;999.90;;;;;;;;;;5063712;28;20584;-68
2022/10/02 07:06:45;;;;;;;1999.90;999.90;;;;;;;;;;5054848;28;20199;-69
2022/10/02 07:09:39;;;;;;;1999.90;999.90;;;;;;;;;;5058155;28;20196;-67
2022/10/02 07:12:34;;;;;;;1999.90;999.90;;;;;;;;;;5057959;28;20275;-68
2022/10/02 07:15:29;;;;;;;1999.90;999.90;;;;;;;;;;5065842;28;20251;-68
2022/10/02 07:18:20;;;;;;;1999.90;999.90;;;;;;;;;;5054770;28;20260;-68
2022/10/02 07:21:09;;;;;;;1999.90;999.90;;;;;;;;;;5054588;28;20297;-69
2022/10/02 07:23:57;;;;;;;1999.90;999.90;;;;;;;;;;5057084;28;20204;-69
2022/10/02 07:26:49;;;;;;;1999.90;999.90;;;;;;;;;;5065579;28;20215;-69
2022/10/02 07:29:42;;;;;;;1999.90;999.90;;;;;;;;;;5067562;28;20208;-68
2022/10/02 07:32:41;;;;;;;1999.90;999.90;;;;;;;;;;5066566;28;20237;-69
2022/10/02 07:35:34;;;;;;;1999.90;999.90;;;;;;;;;;5067836;28;20216;-70
2022/10/02 07:38:41;;;;;;;1999.90;999.90;;;;;;;;;;5065275;28;20213;-70
2022/10/02 07:41:41;;;;;;;1999.90;999.90;;;;;;;;;;5062498;28;20224;-70
2022/10/02 07:44:34;;;;;;;1999.90;999.90;;;;;;;;;;5062569;28;20287;-69
2022/10/02 07:47:28;;;;;;;1999.90;999.90;;;;;;;;;;5053604;28;20252;-69
2022/10/02 07:50:16;;;;;;;1999.90;999.90;;;;;;;;;;5066755;28;20236;-68
2022/10/02 07:53:05;;;;;;;1999.90;999.90;;;;;;;;;;5071621;28;20762;-70
2022/10/02 07:55:52;;;;;;;1999.90;999.90;;;;;;;;;;5072081;28;20200;-69
2022/10/02 07:58:38;;;;;;;1999.90;999.90;;;;;;;;;;5063036;28;20208;-69
2022/10/02 08:01:26;;;;;;;1999.90;999.90;;;;;;;;;;5071956;28;20302;-69
2022/10/02 08:04:15;;;;;;;1999.90;999.90;;;;;;;;;;5071394;28;20629;-68
2022/10/02 08:07:01;;;;;;;1999.90;999.90;;;;;;;;;;5069697;28;20213;-69
2022/10/02 08:09:49;;;;;;;1999.90;999.90;;;;;;;;;;5064887;28;20594;-69
2022/10/02 08:12:38;;;;;;;1999.90;999.90;;;;;;;;;;5066068;28;20296;-71
2022/10/02 08:15:24;;;;;;;1999.90;999.90;;;;;;;;;;5052924;28;20320;-70
2022/10/02 08:18:17;;;;;;;1999.90;999.90;;;;;;;;;;5069687;28;20776;-69
2022/10/02 08:21:03;;;;;;;1999.90;999.90;;;;;;;;;;5069333;28;20715;-69
2022/10/02 08:23:52;;;;;;;1999.90;999.90;;;;;;;;;;5066164;28;20817;-70
2022/10/02 08:26:41;;;;;;;1999.90;999.90;;;;;;;;;;5068149;28;20221;-70
2022/10/02 08:29:28;;;;;;;1999.90;999.90;;;;;;;;;;5073133;28;20574;-70
2022/10/02 08:32:14;;;;;;;1999.90;999.90;;;;;;;;;;5072405;28;20734;-70
2022/10/02 08:35:00;;;;;;;1999.90;999.90;;;;;;;;;;5068970;28;20263;-71
2022/10/02 08:38:11;;;;;;;1999.90;999.90;;;;;;;;;;5065342;28;20209;-71
2022/10/02 08:41:15;;;;;;;1999.90;999.90;;;;;;;;;;5059927;28;20589;-69
2022/10/02 08:44:20;;;;;;;1999.90;999.90;;;;;;;;;;5036542;28;20426;-70
2022/10/02 08:47:35;;;;;;;1999.90;999.90;;;;;;;;;;5068576;28;20793;-70
2022/10/02 08:50:29;;;;;;;1999.90;999.90;;;;;;;;;;5054737;28;20228;-70
2022/10/02 08:53:44;;;;;;;1999.90;999.90;;;;;;;;;;5064419;28;20212;-71
2022/10/02 08:56:39;;;;;;;1999.90;999.90;;;;;;;;;;5071645;28;20267;-72
2022/10/02 08:59:52;;;;;;;1999.90;999.90;;;;;;;;;;5063147;28;20250;-71
2022/10/02 09:03:02;;;;;;;1999.90;999.90;;;;;;;;;;5026693;28;20463;-69
2022/10/02 09:06:05;;;;;;;1999.90;999.90;;;;;;;;;;5063794;28;20232;-71
2022/10/02 09:09:08;;;;;;;1999.90;999.90;;;;;;;;;;5068635;28;20208;-70
2022/10/02 09:12:11;;;;;;;1999.90;999.90;;;;;;;;;;5055800;28;20239;-70
2022/10/02 09:15:06;;;;;;;1999.90;999.90;;;;;;;;;;5052049;28;20205;-70
2022/10/02 09:18:02;;;;;;;1999.90;999.90;;;;;;;;;;5064114;28;20209;-70
2022/10/02 09:21:05;;;;;;;1999.90;999.90;;;;;;;;;;5069639;28;20220;-70
2022/10/02 09:24:05;;;;;;;1999.90;999.90;;;;;;;;;;5054392;28;20204;-70
2022/10/02 09:26:57;;;;;;;1999.90;999.90;;;;;;;;;;5051595;28;20204;-70
2022/10/02 09:29:57;;;;;;;1999.90;999.90;;;;;;;;;;5052067;28;20332;-70
2022/10/02 09:33:06;;;;;;;1999.90;999.90;;;;;;;;;;5051643;28;20270;-70
2022/10/02 09:36:09;;;;;;;1999.90;999.90;;;;;;;;;;5051171;28;20198;-70
2022/10/02 09:39:01;;;;;;;1999.90;999.90;;;;;;;;;;5059338;28;20212;-70
2022/10/02 09:41:58;;;;;;;1999.90;999.90;;;;;;;;;;5069438;28;20223;-70
2022/10/02 09:45:06;;;;;;;1999.90;999.90;;;;;;;;;;5063986;28;20205;-70
2022/10/02 09:48:10;;;;;;;1999.90;999.90;;;;;;;;;;5060186;28;20255;-70
2022/10/02 09:51:10;;;;;;;1999.90;999.90;;;;;;;;;;5064235;28;20231;-70
2022/10/02 09:54:09;;;;;;;1999.90;999.90;;;;;;;;;;5068316;28;20419;-70
2022/10/02 09:57:10;;;;;;;1999.90;999.90;;;;;;;;;;5060125;28;20298;-70
2022/10/02 10:00:04;;;;;;;1999.90;999.90;;;;;;;;;;5070779;28;20197;-70
2022/10/02 10:03:16;;;;;;;1999.90;999.90;;;;;;;;;;5065749;28;20217;-70
2022/10/02 10:06:22;;;;;;;1999.90;999.90;;;;;;;;;;5065794;28;20758;-69
2022/10/02 10:09:24;;;;;;;1999.90;999.90;;;;;;;;;;5070269;28;20247;-69
2022/10/02 10:12:17;;;;;;;1999.90;999.90;;;;;;;;;;5069777;28;20729;-69
2022/10/02 10:15:33;;;;;;;1999.90;999.90;;;;;;;;;;5070093;28;20227;-70
2022/10/02 10:18:27;;;;;;;1999.90;999.90;;;;;;;;;;5075922;28;20208;-70
2022/10/02 10:21:43;;;;;;;1999.90;999.90;;;;;;;;;;5066345;28;20240;-70
2022/10/02 10:24:39;;;;;;;1999.90;999.90;;;;;;;;;;5074408;28;20612;-70
2022/10/02 10:27:41;;;;;;;1999.90;999.90;;;;;;;;;;5067854;28;20209;-69
2022/10/02 10:30:47;;;;;;;1999.90;999.90;;;;;;;;;;5063893;28;20212;-70
2022/10/02 10:33:51;;;;;;;1999.90;999.90;;;;;;;;;;5046159;28;20220;-68
2022/10/02 10:40:06;;;;;;;1999.90;999.90;;;;;;;;;;5070121;28;20296;-67
2022/10/02 10:43:18;;;;;;;1999.90;999.90;;;;;;;;;;5066683;28;20283;-70
2022/10/02 10:46:18;;;;;;;1999.90;999.90;;;;;;;;;;5038619;28;20210;-70
2022/10/02 10:49:11;;;;;;;1999.90;999.90;;;;;;;;;;5073185;28;20290;-70
2022/10/02 10:52:06;;;;;;;1999.90;999.90;;;;;;;;;;5066476;28;20694;-69
2022/10/02 10:54:53;;;;;;;1999.90;999.90;;;;;;;;;;5065891;28;20214;-69
2022/10/02 10:57:50;;;;;;;1999.90;999.90;;;;;;;;;;5054556;28;20652;-68
2022/10/02 11:00:40;;;;;;;1999.90;999.90;;;;;;;;;;5063185;28;20733;-69
2022/10/02 11:03:47;;;;;;;1999.90;999.90;;;;;;;;;;5069082;28;20287;-68
2022/10/02 11:06:37;;;;;;;1999.90;999.90;;;;;;;;;;5068303;28;20212;-70
2022/10/02 11:09:28;;;;;;;1999.90;999.90;;;;;;;;;;5069770;28;20579;-69
2022/10/02 11:12:27;;;;;;;1999.90;999.90;;;;;;;;;;5073808;28;20240;-70
2022/10/02 11:15:19;;;;;;;1999.90;999.90;;;;;;;;;;5070008;28;20262;-69
2022/10/02 11:18:27;;;;;;;1999.90;999.90;;;;;;;;;;5066567;28;20473;-68
2022/10/02 11:21:24;;;;;;;1999.90;999.90;;;;;;;;;;5068911;28;20722;-69
2022/10/02 11:24:33;;;;;;;1999.90;999.90;;;;;;;;;;5063715;28;20336;-69
2022/10/02 11:27:26;;;;;;;1999.90;999.90;;;;;;;;;;5055434;28;20813;-69
2022/10/02 11:30:19;;;;;;;1999.90;999.90;;;;;;;;;;5065224;28;20225;-69
2022/10/02 11:33:24;;;;;;;1999.90;999.90;;;;;;;;;;5071541;28;20208;-69
2022/10/02 11:36:19;;;;;;;1999.90;999.90;;;;;;;;;;5067712;28;20335;-69
2022/10/02 11:39:07;;;;;;;1999.90;999.90;;;;;;;;;;5066147;28;20250;-69
2022/10/02 11:41:59;;;;;;;1999.90;999.90;;;;;;;;;;5068920;28;20691;-68
2022/10/02 11:44:53;;;;;;;1999.90;999.90;;;;;;;;;;5074008;28;20208;-69
2022/10/02 11:48:04;;;;;;;1999.90;999.90;;;;;;;;;;5069365;28;20295;-69
2022/10/02 11:51:02;;;;;;;1999.90;999.90;;;;;;;;;;5060447;28;20232;-69
2022/10/02 11:53:56;;;;;;;1999.90;999.90;;;;;;;;;;5053369;28;20562;-69
2022/10/02 11:56:59;;;;;;;1999.90;999.90;;;;;;;;;;5053266;28;20695;-69
2022/10/02 12:00:04;;;;;;;1999.90;999.90;;;;;;;;;;5053353;28;20200;-69
2022/10/02 12:02:54;;;;;;;1999.90;999.90;;;;;;;;;;5052887;28;20585;-68
2022/10/02 12:05:52;;;;;;;1999.90;999.90;;;;;;;;;;5052958;28;20202;-69
2022/10/02 12:08:54;;;;;;;1999.90;999.90;;;;;;;;;;5052587;28;20409;-69
2022/10/02 12:11:43;;;;;;;1999.90;999.90;;;;;;;;;;5052837;28;20213;-69
2022/10/02 12:14:33;;;;;;;1999.90;999.90;;;;;;;;;;5061710;28;20212;-68
2022/10/02 12:17:26;;;;;;;1999.90;999.90;;;;;;;;;;5064242;28;20332;-69
2022/10/02 12:27:01;;;;;;;1999.90;999.90;;;;;;;;;;5061228;28;20205;-69
2022/10/02 12:29:53;;;;;;;1999.90;999.90;;;;;;;;;;5051992;28;20406;-68
2022/10/02 12:32:48;;;;;;;1999.90;999.90;;;;;;;;;;5052976;28;20225;-68
2022/10/02 12:35:48;;;;;;;1999.90;999.90;;;;;;;;;;5052527;28;20269;-69
2022/10/02 12:38:39;;;;;;;1999.90;999.90;;;;;;;;;;5057082;28;20623;-68
2022/10/02 12:41:34;;;;;;;1999.90;999.90;;;;;;;;;;5067621;28;20225;-70
2022/10/02 12:44:33;;;;;;;1999.90;999.90;;;;;;;;;;5058552;28;20214;-69
2022/10/02 12:47:49;;;;;;;1999.90;999.90;;;;;;;;;;5055053;28;20331;-69
2022/10/02 12:50:43;;;;;;;1999.90;999.90;;;;;;;;;;5056551;28;20197;-70
2022/10/02 12:53:51;;;;;;;1999.90;999.90;;;;;;;;;;5058197;28;20212;-69
2022/10/02 12:56:55;;;;;;;1999.90;999.90;;;;;;;;;;5069409;28;20298;-69
2022/10/02 12:59:48;;;;;;;1999.90;999.90;;;;;;;;;;5066436;28;20216;-68
2022/10/02 13:02:55;;;;;;;1999.90;999.90;;;;;;;;;;5066064;28;20239;-68
2022/10/02 13:06:02;;;;;;;1999.90;999.90;;;;;;;;;;5059793;28;20303;-68
2022/10/02 13:08:54;;;;;;;1999.90;999.90;;;;;;;;;;5052606;28;20299;-68
2022/10/02 13:11:45;;;;;;;1999.90;999.90;;;;;;;;;;5059614;28;20593;-68
2022/10/02 13:14:36;;;;;;;1999.90;999.90;;;;;;;;;;5060151;28;20217;-68
2022/10/02 13:17:28;;;;;;;1999.90;999.90;;;;;;;;;;5067165;28;20311;-68
2022/10/02 13:20:21;;;;;;;1999.90;999.90;;;;;;;;;;5069510;28;20220;-68
2022/10/02 13:23:13;;;;;;;1999.90;999.90;;;;;;;;;;5063882;28;20275;-68
2022/10/02 13:26:05;;;;;;;1999.90;999.90;;;;;;;;;;5070281;28;20346;-68
2022/10/02 13:28:58;;;;;;;1999.90;999.90;;;;;;;;;;5067444;28;20328;-68
2022/10/02 13:31:51;;;;;;;1999.90;999.90;;;;;;;;;;5061946;28;20225;-68
2022/10/02 13:34:43;;;;;;;1999.90;999.90;;;;;;;;;;5059704;28;20205;-67
2022/10/02 13:37:35;;;;;;;1999.90;999.90;;;;;;;;;;5060338;28;20206;-68
2022/10/02 13:40:24;;;;;;;1999.90;999.90;;;;;;;;;;5057239;28;20958;-68
2022/10/02 13:43:21;;;;;;;1999.90;999.90;;;;;;;;;;5060164;28;20205;-68
2022/10/02 13:46:12;;;;;;;1999.90;999.90;;;;;;;;;;5069181;28;20568;-68
2022/10/02 13:49:03;;;;;;;1999.90;999.90;;;;;;;;;;5054781;28;20216;-68
2022/10/02 13:51:52;;;;;;;1999.90;999.90;;;;;;;;;;5054926;28;20227;-68
2022/10/02 13:54:49;;;;;;;1999.90;999.90;;;;;;;;;;5068349;28;20216;-68
2022/10/02 13:57:40;;;;;;;1999.90;999.90;;;;;;;;;;5061062;28;20205;-68
2022/10/02 14:00:42;;;;;;;1999.90;999.90;;;;;;;;;;5055824;28;20209;-68
2022/10/02 14:03:33;;;;;;;1999.90;999.90;;;;;;;;;;5053604;28;20703;-69
2022/10/02 14:06:20;;;;;;;1999.90;999.90;;;;;;;;;;5061839;28;20224;-69
2022/10/02 14:09:15;;;;;;;1999.90;999.90;;;;;;;;;;5060745;28;20205;-69
2022/10/02 14:12:07;;;;;;;1999.90;999.90;;;;;;;;;;5061911;28;20255;-69
2022/10/02 14:15:00;;;;;;;1999.90;999.90;;;;;;;;;;5062727;28;20247;-68
2022/10/02 14:17:51;;;;;;;1999.90;999.90;;;;;;;;;;5064207;28;20678;-68
2022/10/02 14:20:39;;;;;;;1999.90;999.90;;;;;;;;;;5064253;28;20241;-69
2022/10/02 14:23:33;;;;;;;1999.90;999.90;;;;;;;;;;5060674;28;20206;-68
2022/10/02 14:26:23;;;;;;;1999.90;999.90;;;;;;;;;;5057985;28;20236;-68
2022/10/02 14:29:26;;;;;;;1999.90;999.90;;;;;;;;;;5051032;28;20461;-69
2022/10/02 14:32:26;;;;;;;1999.90;999.90;;;;;;;;;;5050249;28;20816;-69
2022/10/02 14:35:21;;;;;;;1999.90;999.90;;;;;;;;;;5051282;28;20221;-69
2022/10/02 14:38:15;;;;;;;1999.90;999.90;;;;;;;;;;5051460;28;20299;-69
2022/10/02 14:41:03;;;;;;;1999.90;999.90;;;;;;;;;;5051421;28;20295;-69
2022/10/02 14:44:06;;;;;;;1999.90;999.90;;;;;;;;;;5051448;28;20201;-69
2022/10/02 14:47:05;;;;;;;1999.90;999.90;;;;;;;;;;5051351;28;20196;-69
2022/10/02 14:50:13;;;;;;;1999.90;999.90;;;;;;;;;;5050466;28;20410;-69
2022/10/02 14:53:22;;;;;;;1999.90;999.90;;;;;;;;;;5051113;28;20686;-69
2022/10/02 14:56:27;;;;;;;1999.90;999.90;;;;;;;;;;4987444;28;20208;-68
2022/10/02 14:59:20;;;;;;;1999.90;999.90;;;;;;;;;;5051353;28;20198;-69
2022/10/02 15:02:14;;;;;;;1999.90;999.90;;;;;;;;;;5054801;28;20287;-69
2022/10/02 15:05:02;;;;;;;1999.90;999.90;;;;;;;;;;5054721;28;20244;-69
2022/10/02 15:07:49;;;;;;;1999.90;999.90;;;;;;;;;;5055004;28;20197;-68
2022/10/02 15:10:36;;;;;;;1999.90;999.90;;;;;;;;;;5054832;28;20209;-69
2022/10/02 15:13:29;;;;;;;1999.90;999.90;;;;;;;;;;5054503;28;20687;-68
2022/10/02 15:19:20;;;;;;;1999.90;999.90;;;;;;;;;;5054494;28;20240;-69
2022/10/02 15:22:08;;;;;;;1999.90;999.90;;;;;;;;;;5054388;28;20224;-69
2022/10/02 15:24:56;;;;;;;1999.90;999.90;;;;;;;;;;5054383;28;20201;-69
2022/10/02 15:27:44;;;;;;;1999.90;999.90;;;;;;;;;;5054940;28;20209;-69
2022/10/02 15:30:30;;;;;;;1999.90;999.90;;;;;;;;;;5054212;28;20218;-69
2022/10/02 15:33:19;;;;;;;1999.90;999.90;;;;;;;;;;5054308;28;20315;-69
2022/10/02 15:36:13;;;;;;;1999.90;999.90;;;;;;;;;;5054049;28;20251;-69
2022/10/02 15:39:06;;;;;;;1999.90;999.90;;;;;;;;;;5054356;28;20212;-68
2022/10/02 15:42:01;;;;;;;1999.90;999.90;;;;;;;;;;5054130;28;20351;-69
2022/10/02 15:44:54;;;;;;;1999.90;999.90;;;;;;;;;;5053831;28;20340;-68
2022/10/02 15:47:48;;;;;;;1999.90;999.90;;;;;;;;;;5054619;28;20288;-69
2022/10/02 15:50:37;;;;;;;1999.90;999.90;;;;;;;;;;5054613;28;20328;-69
2022/10/02 15:53:37;;;;;;;1999.90;999.90;;;;;;;;;;5053832;28;20636;-68
2022/10/02 15:56:32;;;;;;;1999.90;999.90;;;;;;;;;;5046974;28;20216;-69
2022/10/02 15:59:30;;;;;;;1999.90;999.90;;;;;;;;;;5053023;28;20416;-68
2022/10/02 16:02:30;;;;;;;1999.90;999.90;;;;;;;;;;5053955;28;20225;-69
2022/10/02 16:05:21;;;;;;;1999.90;999.90;;;;;;;;;;5053604;28;20256;-69
2022/10/02 16:08:11;;;;;;;1999.90;999.90;;;;;;;;;;5054003;28;20201;-69
2022/10/02 16:11:08;;;;;;;1999.90;999.90;;;;;;;;;;5053564;28;20217;-69
2022/10/02 16:13:59;;;;;;;1999.90;999.90;;;;;;;;;;5053310;28;20352;-69
2022/10/02 16:17:02;;;;;;;1999.90;999.90;;;;;;;;;;5053642;28;20201;-68
2022/10/02 16:20:03;;;;;;;1999.90;999.90;;;;;;;;;;5024071;28;20210;-69
2022/10/02 16:22:57;;;;;;;1999.90;999.90;;;;;;;;;;5053541;28;20192;-69
2022/10/02 16:25:51;;;;;;;1999.90;999.90;;;;;;;;;;5053143;28;20205;-68
2022/10/02 16:28:50;;;;;;;1999.90;999.90;;;;;;;;;;5053519;28;20225;-69
2022/10/02 16:31:42;;;;;;;1999.90;999.90;;;;;;;;;;5054215;28;20221;-69
2022/10/02 16:34:38;;;;;;;1999.90;999.90;;;;;;;;;;5053057;28;20687;-69
2022/10/02 16:37:26;;;;;;;1999.90;999.90;;;;;;;;;;5053248;28;20193;-68
2022/10/02 16:40:20;;;;;;;1999.90;999.90;;;;;;;;;;5053133;28;20574;-69
2022/10/02 16:43:20;;;;;;;1999.90;999.90;;;;;;;;;;5052788;28;20205;-69
2022/10/02 16:46:09;;;;;;;1999.90;999.90;;;;;;;;;;5052764;28;20317;-69
2022/10/02 16:48:58;;;;;;;1999.90;999.90;;;;;;;;;;5052974;28;20201;-69
2022/10/02 16:51:49;;;;;;;1999.90;999.90;;;;;;;;;;5052797;28;20221;-69
2022/10/02 16:54:45;;;;;;;1999.90;999.90;;;;;;;;;;5052550;28;20213;-69
2022/10/02 16:57:48;;;;;;;1999.90;999.90;;;;;;;;;;5052867;28;20308;-69
2022/10/02 17:00:34;;;;;;;1999.90;999.90;;;;;;;;;;5052548;28;20204;-69
2022/10/02 17:03:24;;;;;;;1999.90;999.90;;;;;;;;;;5052430;28;20779;-69
2022/10/02 17:06:15;;;;;;;1999.90;999.90;;;;;;;;;;5052027;28;20259;-68
2022/10/02 17:09:05;;;;;;;1999.90;999.90;;;;;;;;;;5051891;28;20404;-68
2022/10/02 17:11:55;;;;;;;1999.90;999.90;;;;;;;;;;5052511;28;20213;-69
2022/10/02 17:14:45;;;;;;;1999.90;999.90;;;;;;;;;;5052131;28;20757;-69
2022/10/02 17:17:33;;;;;;;1999.90;999.90;;;;;;;;;;5052535;28;20859;-68
2022/10/02 17:20:20;;;;;;;1999.90;999.90;;;;;;;;;;5052442;28;20704;-69
2022/10/02 17:23:12;;;;;;;1999.90;999.90;;;;;;;;;;5051878;28;20207;-69
2022/10/02 17:26:00;;;;;;;1999.90;999.90;;;;;;;;;;5051822;28;20514;-69
2022/10/02 17:28:48;;;;;;;1999.90;999.90;;;;;;;;;;5052265;28;20198;-68
2022/10/02 17:31:40;;;;;;;1999.90;999.90;;;;;;;;;;5052163;28;20221;-69
2022/10/02 17:34:26;;;;;;;1999.90;999.90;;;;;;;;;;5051505;28;20224;-68
2022/10/02 17:37:29;;;;;;;1999.90;999.90;;;;;;;;;;5052101;28;20794;-69
2022/10/02 17:40:16;;;;;;;1999.90;999.90;;;;;;;;;;5052032;28;20211;-68
2022/10/02 17:43:03;;;;;;;1999.90;999.90;;;;;;;;;;5051794;28;20200;-68
2022/10/02 17:45:57;;;;;;;1999.90;999.90;;;;;;;;;;5051652;28;20203;-69
2022/10/02 17:48:49;;;;;;;1999.90;999.90;;;;;;;;;;5051981;28;20203;-68
2022/10/02 17:51:38;;;;;;;1999.90;999.90;;;;;;;;;;5052214;28;20576;-69
2022/10/02 17:57:40;;;;;;;1999.90;999.90;;;;;;;;;;5051927;28;20203;-68
2022/10/02 18:00:25;;;;;;;1999.90;999.90;;;;;;;;;;5050716;28;20459;-68
2022/10/02 18:03:25;;;;;;;1999.90;999.90;;;;;;;;;;5051911;28;20223;-69
2022/10/02 18:06:13;;;;;;;1999.90;999.90;;;;;;;;;;5051531;28;20196;-69
2022/10/02 18:09:22;;;;;;;1999.90;999.90;;;;;;;;;;5051761;28;20694;-69
2022/10/02 18:12:17;;;;;;;1999.90;999.90;;;;;;;;;;5044245;28;20251;-68
2022/10/02 18:15:15;;;;;;;1999.90;999.90;;;;;;;;;;5051320;28;20216;-68
2022/10/02 18:18:07;;;;;;;1999.90;999.90;;;;;;;;;;5051735;28;20693;-69
2022/10/02 18:21:03;;;;;;;1999.90;999.90;;;;;;;;;;5050171;28;20897;-69
2022/10/02 18:24:01;;;;;;;1999.90;999.90;;;;;;;;;;5051764;28;20223;-69
2022/10/02 18:26:54;;;;;;;1999.90;999.90;;;;;;;;;;5051626;28;20195;-69
2022/10/02 18:29:44;;;;;;;1999.90;999.90;;;;;;;;;;5051650;28;20208;-68
2022/10/02 18:32:37;;;;;;;1999.90;999.90;;;;;;;;;;5051430;28;20237;-69
2022/10/02 18:35:27;;;;;;;1999.90;999.90;;;;;;;;;;5053821;28;20293;-69
2022/10/02 18:38:16;;;;;;;1999.90;999.90;;;;;;;;;;5055447;28;20572;-69
2022/10/02 18:41:07;;;;;;;1999.90;999.90;;;;;;;;;;5055348;28;20223;-69
2022/10/02 18:43:56;;;;;;;1999.90;999.90;;;;;;;;;;5055279;28;20589;-69
2022/10/02 18:46:48;;;;;;;1999.90;999.90;;;;;;;;;;5055207;28;20290;-69
2022/10/02 18:49:46;;;;;;;1999.90;999.90;;;;;;;;;;5060037;28;20646;-70
2022/10/02 18:52:38;;;;;;;1999.90;999.90;;;;;;;;;;5069165;28;20309;-68
2022/10/02 18:55:32;;;;;;;1999.90;999.90;;;;;;;;;;5058980;28;20224;-69
2022/10/02 18:58:30;;;;;;;1999.90;999.90;;;;;;;;;;5075140;28;20202;-69
2022/10/02 19:01:25;;;;;;;1999.90;999.90;;;;;;;;;;5069684;28;20750;-68
2022/10/02 19:04:25;;;;;;;1999.90;999.90;;;;;;;;;;5064256;28;20654;-67
2022/10/02 19:07:12;;;;;;;1999.90;999.90;;;;;;;;;;5068746;28;20329;-67
2022/10/02 19:10:16;;;;;;;1999.90;999.90;;;;;;;;;;5061915;28;20216;-68
2022/10/02 19:13:11;;;;;;;1999.90;999.90;;;;;;;;;;5061773;28;20324;-67
2022/10/02 19:15:57;;;;;;;1999.90;999.90;;;;;;;;;;5058753;28;20753;-67
2022/10/02 19:18:42;;;;;;;1999.90;999.90;;;;;;;;;;5064318;28;20283;-67
2022/10/02 19:21:27;;;;;;;1999.90;999.90;;;;;;;;;;5063079;28;20233;-67
2022/10/02 19:24:16;;;;;;;1999.90;999.90;;;;;;;;;;5060955;28;20207;-67
2022/10/02 19:27:03;;;;;;;1999.90;999.90;;;;;;;;;;5070744;28;20408;-67
2022/10/02 19:29:55;;;;;;;1999.90;999.90;;;;;;;;;;5070942;28;20909;-67
2022/10/02 19:32:41;;;;;;;1999.90;999.90;;;;;;;;;;5064838;28;20306;-67
2022/10/02 19:35:31;;;;;;;1999.90;999.90;;;;;;;;;;5056751;28;20621;-67
2022/10/02 19:38:20;;;;;;;1999.90;999.90;;;;;;;;;;5061084;28;20247;-68
2022/10/02 19:41:08;;;;;;;1999.90;999.90;;;;;;;;;;5054231;28;20227;-67
2022/10/02 19:43:56;;;;;;;1999.90;999.90;;;;;;;;;;5054355;28;20211;-68
2022/10/02 19:46:44;;;;;;;1999.90;999.90;;;;;;;;;;5067499;28;20326;-68
2022/10/02 19:49:33;;;;;;;1999.90;999.90;;;;;;;;;;5066325;28;20576;-68
2022/10/02 19:52:34;;;;;;;1999.90;999.90;;;;;;;;;;5062219;28;20235;-67
2022/10/02 19:55:26;;;;;;;1999.90;999.90;;;;;;;;;;5054626;28;20577;-68
2022/10/02 19:58:16;;;;;;;1999.90;999.90;;;;;;;;;;5063220;28;20206;-68
2022/10/02 20:01:02;;;;;;;1999.90;999.90;;;;;;;;;;5061638;28;20747;-68
2022/10/02 20:03:51;;;;;;;1999.90;999.90;;;;;;;;;;5062080;28;20705;-68
2022/10/02 20:06:38;;;;;;;1999.90;999.90;;;;;;;;;;5058845;28;20285;-68
2022/10/02 20:09:27;;;;;;;1999.90;999.90;;;;;;;;;;5066174;28;20211;-67
2022/10/02 20:12:13;;;;;;;1999.90;999.90;;;;;;;;;;5053783;28;20254;-68
2022/10/02 20:15:00;;;;;;;1999.90;999.90;;;;;;;;;;5053202;28;20227;-68
2022/10/02 20:17:46;;;;;;;1999.90;999.90;;;;;;;;;;5053657;28;20596;-68
2022/10/02 20:20:33;;;;;;;1999.90;999.90;;;;;;;;;;5061658;28;20211;-67
2022/10/02 20:23:22;;;;;;;1999.90;999.90;;;;;;;;;;5064181;28;20496;-69
2022/10/02 20:26:08;;;;;;;1999.90;999.90;;;;;;;;;;5072320;28;20255;-68